sensor_id;sensor_type;location;lat;lon;timestamp;pressure;altitude;pressure_sealevel;temperature;humidity
21096;BME280;10706;49.036;12.112;2023-07-13T00:01:51;97531.03;;;18.70;97.37
21096;BME280;10706;49.036;12.112;2023-07-13T00:04:21;97525.41;;;18.66;98.43
21096;BME280;10706;49.036;12.112;2023-07-13T00:06:48;97522.75;;;18.61;97.98
21096;BME280;10706;49.036;12.112;2023-07-13T00:09:15;97528.16;;;18.61;98.44
21096;BME280;10706;49.036;12.112;2023-07-13T00:11:43;97532.78;;;18.60;99.31
21096;BME280;10706;49.036;12.112;2023-07-13T00:14:10;97548.50;;;18.58;99.15
21096;BME280;10706;49.036;12.112;2023-07-13T00:16:38;97551.28;;;18.53;99.30
21096;BME280;10706;49.036;12.112;2023-07-13T00:19:05;97562.53;;;18.60;99.32
21096;BME280;10706;49.036;12.112;2023-07-13T00:21:31;97556.84;;;18.62;99.42
21096;BME280;10706;49.036;12.112;2023-07-13T00:23:58;97559.38;;;18.53;99.56
21096;BME280;10706;49.036;12.112;2023-07-13T00:26:24;97558.59;;;18.53;100.00
21096;BME280;10706;49.036;12.112;2023-07-13T00:28:49;97545.34;;;18.51;100.00
21096;BME280;10706;49.036;12.112;2023-07-13T00:31:15;97539.78;;;18.42;100.00
21096;BME280;10706;49.036;12.112;2023-07-13T00:33:42;97544.44;;;18.37;100.00
21096;BME280;10706;49.036;12.112;2023-07-13T00:36:09;97545.63;;;18.31;100.00
21096;BME280;10706;49.036;12.112;2023-07-13T00:38:36;97549.91;;;18.32;100.00
21096;BME280;10706;49.036;12.112;2023-07-13T00:41:03;97538.59;;;18.30;100.00
21096;BME280;10706;49.036;12.112;2023-07-13T00:43:29;97545.91;;;18.29;100.00
21096;BME280;10706;49.036;12.112;2023-07-13T00:48:29;97528.94;;;18.23;100.00
21096;BME280;10706;49.036;12.112;2023-07-13T00:50:58;97538.75;;;18.19;100.00
21096;BME280;10706;49.036;12.112;2023-07-13T00:53:27;97547.13;;;18.18;100.00
21096;BME280;10706;49.036;12.112;2023-07-13T00:55:55;97546.03;;;18.19;100.00
21096;BME280;10706;49.036;12.112;2023-07-13T00:58:23;97558.13;;;18.26;100.00
21096;BME280;10706;49.036;12.112;2023-07-13T01:00:50;97552.63;;;18.32;100.00
21096;BME280;10706;49.036;12.112;2023-07-13T01:03:16;97555.84;;;18.34;100.00
21096;BME280;10706;49.036;12.112;2023-07-13T01:05:43;97549.69;;;18.28;100.00
21096;BME280;10706;49.036;12.112;2023-07-13T01:08:09;97541.06;;;18.26;100.00
21096;BME280;10706;49.036;12.112;2023-07-13T01:10:35;97549.50;;;18.24;100.00
21096;BME280;10706;49.036;12.112;2023-07-13T01:13:10;97551.88;;;18.26;100.00
21096;BME280;10706;49.036;12.112;2023-07-13T01:15:45;97555.41;;;18.26;100.00
21096;BME280;10706;49.036;12.112;2023-07-13T01:18:21;97545.91;;;18.29;100.00
21096;BME280;10706;49.036;12.112;2023-07-13T01:21:02;97536.41;;;18.32;100.00
21096;BME280;10706;49.036;12.112;2023-07-13T01:23:30;97550.44;;;18.34;100.00
21096;BME280;10706;49.036;12.112;2023-07-13T01:25:57;97549.56;;;18.38;100.00
21096;BME280;10706;49.036;12.112;2023-07-13T01:28:24;97540.66;;;18.38;100.00
21096;BME280;10706;49.036;12.112;2023-07-13T01:30:54;97540.94;;;18.36;100.00
21096;BME280;10706;49.036;12.112;2023-07-13T01:33:20;97549.06;;;18.36;100.00
21096;BME280;10706;49.036;12.112;2023-07-13T01:35:46;97539.41;;;18.30;100.00
21096;BME280;10706;49.036;12.112;2023-07-13T01:38:15;97538.88;;;18.28;100.00
21096;BME280;10706;49.036;12.112;2023-07-13T01:40:41;97539.69;;;18.29;100.00
21096;BME280;10706;49.036;12.112;2023-07-13T01:43:07;97543.47;;;18.27;100.00
21096;BME280;10706;49.036;12.112;2023-07-13T01:45:33;97531.88;;;18.27;100.00
21096;BME280;10706;49.036;12.112;2023-07-13T01:47:59;97529.97;;;18.27;100.00
21096;BME280;10706;49.036;12.112;2023-07-13T01:50:25;97525.06;;;18.30;100.00
21096;BME280;10706;49.036;12.112;2023-07-13T01:52:52;97521.34;;;18.25;100.00
21096;BME280;10706;49.036;12.112;2023-07-13T01:55:18;97527.22;;;18.33;100.00
21096;BME280;10706;49.036;12.112;2023-07-13T01:57:43;97534.06;;;18.25;100.00
21096;BME280;10706;49.036;12.112;2023-07-13T02:00:11;97531.94;;;18.22;100.00
21096;BME280;10706;49.036;12.112;2023-07-13T02:02:37;97531.94;;;18.22;100.00
21096;BME280;10706;49.036;12.112;2023-07-13T02:05:03;97528.44;;;18.21;100.00
21096;BME280;10706;49.036;12.112;2023-07-13T02:07:28;97528.78;;;18.15;100.00
21096;BME280;10706;49.036;12.112;2023-07-13T02:09:54;97536.59;;;18.16;100.00
21096;BME280;10706;49.036;12.112;2023-07-13T02:12:20;97521.78;;;18.14;100.00
21096;BME280;10706;49.036;12.112;2023-07-13T02:14:45;97527.53;;;18.07;100.00
21096;BME280;10706;49.036;12.112;2023-07-13T02:17:12;97529.19;;;18.03;100.00
21096;BME280;10706;49.036;12.112;2023-07-13T02:19:37;97533.56;;;17.99;100.00
21096;BME280;10706;49.036;12.112;2023-07-13T02:22:03;97530.66;;;17.95;100.00
21096;BME280;10706;49.036;12.112;2023-07-13T02:24:29;97522.31;;;17.92;100.00
21096;BME280;10706;49.036;12.112;2023-07-13T02:26:55;97529.66;;;17.86;100.00
21096;BME280;10706;49.036;12.112;2023-07-13T02:29:21;97534.81;;;17.82;100.00
21096;BME280;10706;49.036;12.112;2023-07-13T02:31:46;97535.41;;;17.79;100.00
21096;BME280;10706;49.036;12.112;2023-07-13T02:34:12;97541.09;;;17.78;100.00
21096;BME280;10706;49.036;12.112;2023-07-13T02:36:38;97538.94;;;17.75;100.00
21096;BME280;10706;49.036;12.112;2023-07-13T02:39:05;97543.03;;;17.72;100.00
21096;BME280;10706;49.036;12.112;2023-07-13T02:41:31;97545.25;;;17.65;100.00
21096;BME280;10706;49.036;12.112;2023-07-13T02:44:00;97548.53;;;17.62;100.00
21096;BME280;10706;49.036;12.112;2023-07-13T02:46:37;97553.97;;;17.57;100.00
21096;BME280;10706;49.036;12.112;2023-07-13T02:49:03;97554.56;;;17.54;100.00
21096;BME280;10706;49.036;12.112;2023-07-13T02:51:29;97550.75;;;17.55;100.00
21096;BME280;10706;49.036;12.112;2023-07-13T02:53:55;97555.63;;;17.53;100.00
21096;BME280;10706;49.036;12.112;2023-07-13T02:56:26;97549.72;;;17.51;100.00
21096;BME280;10706;49.036;12.112;2023-07-13T02:58:52;97544.91;;;17.47;100.00
21096;BME280;10706;49.036;12.112;2023-07-13T03:01:19;97556.25;;;17.44;100.00
21096;BME280;10706;49.036;12.112;2023-07-13T03:03:46;97551.41;;;17.41;100.00
21096;BME280;10706;49.036;12.112;2023-07-13T03:06:13;97554.69;;;17.38;100.00
21096;BME280;10706;49.036;12.112;2023-07-13T03:08:39;97557.97;;;17.35;100.00
21096;BME280;10706;49.036;12.112;2023-07-13T03:11:14;97555.81;;;17.32;100.00
21096;BME280;10706;49.036;12.112;2023-07-13T03:13:41;97569.91;;;17.29;100.00
21096;BME280;10706;49.036;12.112;2023-07-13T03:16:09;97571.25;;;17.26;100.00
21096;BME280;10706;49.036;12.112;2023-07-13T03:18:36;97568.84;;;17.25;100.00
21096;BME280;10706;49.036;12.112;2023-07-13T03:21:03;97569.13;;;17.23;100.00
21096;BME280;10706;49.036;12.112;2023-07-13T03:23:29;97584.22;;;17.24;100.00
21096;BME280;10706;49.036;12.112;2023-07-13T03:26:07;97575.59;;;17.22;100.00
21096;BME280;10706;49.036;12.112;2023-07-13T03:28:33;97593.97;;;17.20;100.00
21096;BME280;10706;49.036;12.112;2023-07-13T03:31:02;97588.06;;;17.18;100.00
21096;BME280;10706;49.036;12.112;2023-07-13T03:33:28;97597.81;;;17.14;100.00
21096;BME280;10706;49.036;12.112;2023-07-13T03:35:54;97592.69;;;17.13;100.00
21096;BME280;10706;49.036;12.112;2023-07-13T03:38:20;97593.22;;;17.09;100.00
21096;BME280;10706;49.036;12.112;2023-07-13T03:40:45;97597.81;;;17.09;100.00
21096;BME280;10706;49.036;12.112;2023-07-13T03:43:11;97607.22;;;17.17;100.00
21096;BME280;10706;49.036;12.112;2023-07-13T03:45:40;97608.00;;;17.17;100.00
21096;BME280;10706;49.036;12.112;2023-07-13T03:48:06;97608.59;;;17.14;100.00
21096;BME280;10706;49.036;12.112;2023-07-13T03:50:32;97614.25;;;17.13;100.00
21096;BME280;10706;49.036;12.112;2023-07-13T03:52:58;97618.63;;;17.08;100.00
21096;BME280;10706;49.036;12.112;2023-07-13T03:55:24;97616.97;;;17.13;100.00
21096;BME280;10706;49.036;12.112;2023-07-13T03:57:58;97616.41;;;17.16;100.00
21096;BME280;10706;49.036;12.112;2023-07-13T04:00:24;97614.50;;;17.16;100.00
21096;BME280;10706;49.036;12.112;2023-07-13T04:02:51;97622.34;;;17.18;100.00
21096;BME280;10706;49.036;12.112;2023-07-13T04:05:16;97619.34;;;17.19;100.00
21096;BME280;10706;49.036;12.112;2023-07-13T04:07:42;97621.75;;;17.21;100.00
21096;BME280;10706;49.036;12.112;2023-07-13T04:10:09;97622.28;;;17.23;100.00
21096;BME280;10706;49.036;12.112;2023-07-13T04:12:34;97621.19;;;17.24;100.00
21096;BME280;10706;49.036;12.112;2023-07-13T04:15:00;97616.31;;;17.26;100.00
21096;BME280;10706;49.036;12.112;2023-07-13T04:17:26;97621.97;;;17.29;100.00
21096;BME280;10706;49.036;12.112;2023-07-13T04:19:52;97622.50;;;17.32;100.00
21096;BME280;10706;49.036;12.112;2023-07-13T04:22:17;97621.66;;;17.36;100.00
21096;BME280;10706;49.036;12.112;2023-07-13T04:24:43;97621.03;;;17.44;100.00
21096;BME280;10706;49.036;12.112;2023-07-13T04:27:09;97623.72;;;17.49;100.00
21096;BME280;10706;49.036;12.112;2023-07-13T04:29:34;97620.66;;;17.56;100.00
21096;BME280;10706;49.036;12.112;2023-07-13T04:32:00;97613.38;;;17.57;100.00
21096;BME280;10706;49.036;12.112;2023-07-13T04:34:26;97619.59;;;17.57;100.00
21096;BME280;10706;49.036;12.112;2023-07-13T04:36:52;97616.63;;;17.59;100.00
21096;BME280;10706;49.036;12.112;2023-07-13T04:39:18;97620.34;;;17.63;100.00
21096;BME280;10706;49.036;12.112;2023-07-13T04:41:44;97624.09;;;17.67;100.00
21096;BME280;10706;49.036;12.112;2023-07-13T04:44:09;97624.59;;;17.69;100.00
21096;BME280;10706;49.036;12.112;2023-07-13T04:46:35;97628.31;;;17.78;100.00
21096;BME280;10706;49.036;12.112;2023-07-13T04:49:01;97622.38;;;17.76;100.00
21096;BME280;10706;49.036;12.112;2023-07-13T04:51:29;97619.09;;;17.84;100.00
21096;BME280;10706;49.036;12.112;2023-07-13T04:53:55;97619.59;;;17.86;100.00
21096;BME280;10706;49.036;12.112;2023-07-13T04:56:20;97627.09;;;17.95;99.78
21096;BME280;10706;49.036;12.112;2023-07-13T04:58:46;97629.81;;;17.95;98.85
21096;BME280;10706;49.036;12.112;2023-07-13T05:01:12;97636.25;;;17.99;98.80
21096;BME280;10706;49.036;12.112;2023-07-13T05:03:39;97641.00;;;18.07;98.01
21096;BME280;10706;49.036;12.112;2023-07-13T05:06:07;97646.38;;;18.12;97.40
21096;BME280;10706;49.036;12.112;2023-07-13T05:08:35;97647.44;;;18.11;97.35
21096;BME280;10706;49.036;12.112;2023-07-13T05:11:03;97645.72;;;17.96;97.14
21096;BME280;10706;49.036;12.112;2023-07-13T05:13:29;97650.28;;;18.01;97.46
21096;BME280;10706;49.036;12.112;2023-07-13T05:15:58;97649.78;;;17.94;94.88
21096;BME280;10706;49.036;12.112;2023-07-13T05:18:25;97650.91;;;17.93;93.46
21096;BME280;10706;49.036;12.112;2023-07-13T05:21:04;97655.78;;;17.91;94.09
21096;BME280;10706;49.036;12.112;2023-07-13T05:23:31;97656.00;;;17.94;92.83
21096;BME280;10706;49.036;12.112;2023-07-13T05:25:57;97658.38;;;18.01;93.38
21096;BME280;10706;49.036;12.112;2023-07-13T05:28:23;97657.41;;;18.16;90.84
21096;BME280;10706;49.036;12.112;2023-07-13T05:30:49;97663.97;;;18.34;89.60
21096;BME280;10706;49.036;12.112;2023-07-13T05:33:16;97661.91;;;18.50;88.11
21096;BME280;10706;49.036;12.112;2023-07-13T05:35:42;97662.09;;;18.58;85.36
21096;BME280;10706;49.036;12.112;2023-07-13T05:38:08;97666.63;;;18.63;85.78
21096;BME280;10706;49.036;12.112;2023-07-13T05:40:34;97669.72;;;18.75;82.40
21096;BME280;10706;49.036;12.112;2023-07-13T05:42:59;97676.41;;;18.83;81.41
21096;BME280;10706;49.036;12.112;2023-07-13T05:45:26;97675.91;;;18.81;80.24
21096;BME280;10706;49.036;12.112;2023-07-13T05:47:52;97668.28;;;18.83;80.08
21096;BME280;10706;49.036;12.112;2023-07-13T05:50:18;97678.00;;;18.84;78.73
21096;BME280;10706;49.036;12.112;2023-07-13T05:52:43;97676.91;;;18.85;79.25
21096;BME280;10706;49.036;12.112;2023-07-13T05:55:09;97671.00;;;18.83;80.41
21096;BME280;10706;49.036;12.112;2023-07-13T05:57:35;97671.03;;;18.78;76.12
21096;BME280;10706;49.036;12.112;2023-07-13T06:00:00;97677.72;;;18.86;77.02
21096;BME280;10706;49.036;12.112;2023-07-13T06:02:28;97676.03;;;18.90;75.19
21096;BME280;10706;49.036;12.112;2023-07-13T06:04:53;97680.59;;;18.94;76.62
21096;BME280;10706;49.036;12.112;2023-07-13T06:07:19;97681.31;;;18.81;76.52
21096;BME280;10706;49.036;12.112;2023-07-13T06:09:45;97685.13;;;18.75;75.71
21096;BME280;10706;49.036;12.112;2023-07-13T06:12:11;97684.28;;;18.55;75.69
21096;BME280;10706;49.036;12.112;2023-07-13T06:14:36;97687.97;;;18.64;76.31
21096;BME280;10706;49.036;12.112;2023-07-13T06:17:02;97689.44;;;18.76;76.08
21096;BME280;10706;49.036;12.112;2023-07-13T06:19:29;97697.91;;;18.93;74.47
21096;BME280;10706;49.036;12.112;2023-07-13T06:21:54;97690.03;;;19.16;73.76
21096;BME280;10706;49.036;12.112;2023-07-13T06:24:21;97690.91;;;19.30;72.87
21096;BME280;10706;49.036;12.112;2023-07-13T06:26:47;97694.34;;;19.36;73.77
21096;BME280;10706;49.036;12.112;2023-07-13T06:29:13;97684.31;;;19.36;73.03
21096;BME280;10706;49.036;12.112;2023-07-13T06:31:38;97697.28;;;19.39;72.40
21096;BME280;10706;49.036;12.112;2023-07-13T06:34:04;97696.38;;;19.44;71.34
21096;BME280;10706;49.036;12.112;2023-07-13T06:36:30;97703.78;;;19.38;70.66
21096;BME280;10706;49.036;12.112;2023-07-13T06:38:56;97710.44;;;19.27;70.40
21096;BME280;10706;49.036;12.112;2023-07-13T06:41:21;97710.44;;;19.08;71.73
21096;BME280;10706;49.036;12.112;2023-07-13T06:43:48;97708.75;;;19.12;72.05
21096;BME280;10706;49.036;12.112;2023-07-13T06:46:13;97705.03;;;19.27;72.25
21096;BME280;10706;49.036;12.112;2023-07-13T06:48:39;97704.47;;;19.30;69.65
21096;BME280;10706;49.036;12.112;2023-07-13T06:51:05;97703.00;;;19.38;69.94
21096;BME280;10706;49.036;12.112;2023-07-13T06:53:30;97705.34;;;19.45;68.73
21096;BME280;10706;49.036;12.112;2023-07-13T06:55:56;97705.53;;;19.67;69.01
21096;BME280;10706;49.036;12.112;2023-07-13T06:58:22;97706.19;;;19.78;69.73
21096;BME280;10706;49.036;12.112;2023-07-13T07:00:51;97714.03;;;19.79;67.81
21096;BME280;10706;49.036;12.112;2023-07-13T07:03:17;97712.38;;;19.97;68.27
21096;BME280;10706;49.036;12.112;2023-07-13T07:05:43;97710.56;;;19.93;68.02
21096;BME280;10706;49.036;12.112;2023-07-13T07:08:09;97713.31;;;20.07;68.19
21096;BME280;10706;49.036;12.112;2023-07-13T07:10:36;97705.78;;;20.04;66.17
21096;BME280;10706;49.036;12.112;2023-07-13T07:13:02;97711.13;;;20.23;64.84
21096;BME280;10706;49.036;12.112;2023-07-13T07:15:28;97719.31;;;20.36;64.69
21096;BME280;10706;49.036;12.112;2023-07-13T07:17:54;97724.94;;;20.54;63.87
21096;BME280;10706;49.036;12.112;2023-07-13T07:20:20;97723.88;;;20.69;64.42
21096;BME280;10706;49.036;12.112;2023-07-13T07:22:47;97721.75;;;20.93;63.63
21096;BME280;10706;49.036;12.112;2023-07-13T07:25:13;97726.69;;;20.91;62.45
21096;BME280;10706;49.036;12.112;2023-07-13T07:27:39;97733.47;;;21.30;62.29
21096;BME280;10706;49.036;12.112;2023-07-13T07:30:05;97731.59;;;21.53;60.69
21096;BME280;10706;49.036;12.112;2023-07-13T07:32:32;97738.44;;;21.51;59.47
21096;BME280;10706;49.036;12.112;2023-07-13T07:34:58;97730.47;;;21.54;59.62
21096;BME280;10706;49.036;12.112;2023-07-13T07:37:24;97741.50;;;21.72;58.94
21096;BME280;10706;49.036;12.112;2023-07-13T07:39:49;97741.31;;;21.91;56.10
21096;BME280;10706;49.036;12.112;2023-07-13T07:42:16;97745.78;;;22.09;56.85
21096;BME280;10706;49.036;12.112;2023-07-13T07:44:42;97753.97;;;21.96;54.67
21096;BME280;10706;49.036;12.112;2023-07-13T07:47:08;97750.66;;;21.76;54.99
21096;BME280;10706;49.036;12.112;2023-07-13T07:49:36;97743.34;;;21.63;57.36
21096;BME280;10706;49.036;12.112;2023-07-13T07:52:02;97739.47;;;21.55;57.22
21096;BME280;10706;49.036;12.112;2023-07-13T07:54:27;97750.44;;;21.50;57.04
21096;BME280;10706;49.036;12.112;2023-07-13T07:56:53;97750.31;;;21.41;57.33
21096;BME280;10706;49.036;12.112;2023-07-13T07:59:19;97745.84;;;21.09;58.71
21096;BME280;10706;49.036;12.112;2023-07-13T08:01:45;97754.41;;;21.16;59.59
21096;BME280;10706;49.036;12.112;2023-07-13T08:04:13;97763.75;;;21.10;58.68
21096;BME280;10706;49.036;12.112;2023-07-13T08:06:39;97758.75;;;21.40;59.76
21096;BME280;10706;49.036;12.112;2023-07-13T08:09:04;97755.88;;;21.50;54.83
21096;BME280;10706;49.036;12.112;2023-07-13T08:11:31;97755.38;;;21.48;55.38
21096;BME280;10706;49.036;12.112;2023-07-13T08:13:57;97761.13;;;21.69;56.62
21096;BME280;10706;49.036;12.112;2023-07-13T08:16:23;97769.09;;;21.65;51.49
21096;BME280;10706;49.036;12.112;2023-07-13T08:18:49;97764.28;;;21.62;52.87
21096;BME280;10706;49.036;12.112;2023-07-13T08:21:15;97764.72;;;21.55;52.01
21096;BME280;10706;49.036;12.112;2023-07-13T08:23:40;97767.22;;;21.52;53.83
21096;BME280;10706;49.036;12.112;2023-07-13T08:26:07;97777.16;;;21.70;53.06
21096;BME280;10706;49.036;12.112;2023-07-13T08:28:33;97784.16;;;21.85;53.00
21096;BME280;10706;49.036;12.112;2023-07-13T08:31:07;97774.81;;;22.00;51.77
21096;BME280;10706;49.036;12.112;2023-07-13T08:33:35;97777.06;;;21.98;51.44
21096;BME280;10706;49.036;12.112;2023-07-13T08:36:01;97787.34;;;21.87;50.79
21096;BME280;10706;49.036;12.112;2023-07-13T08:38:27;97785.88;;;21.81;51.72
21096;BME280;10706;49.036;12.112;2023-07-13T08:40:55;97792.50;;;21.89;49.75
21096;BME280;10706;49.036;12.112;2023-07-13T08:43:36;97792.91;;;21.82;48.83
21096;BME280;10706;49.036;12.112;2023-07-13T08:46:17;97788.72;;;21.99;49.55
21096;BME280;10706;49.036;12.112;2023-07-13T08:48:52;97784.34;;;22.34;48.83
21096;BME280;10706;49.036;12.112;2023-07-13T08:52:06;97797.38;;;22.46;47.56
21096;BME280;10706;49.036;12.112;2023-07-13T08:54:44;97802.41;;;22.30;47.36
21096;BME280;10706;49.036;12.112;2023-07-13T08:57:18;97807.28;;;22.42;47.03
21096;BME280;10706;49.036;12.112;2023-07-13T08:59:45;97801.22;;;22.76;46.01
21096;BME280;10706;49.036;12.112;2023-07-13T09:05:38;97800.78;;;22.83;46.59
21096;BME280;10706;49.036;12.112;2023-07-13T09:14:25;97809.44;;;22.94;45.42
21096;BME280;10706;49.036;12.112;2023-07-13T09:16:52;97809.13;;;22.86;46.14
21096;BME280;10706;49.036;12.112;2023-07-13T09:19:26;97800.78;;;22.91;48.11
21096;BME280;10706;49.036;12.112;2023-07-13T09:21:54;97793.41;;;23.32;46.15
21096;BME280;10706;49.036;12.112;2023-07-13T09:24:47;97796.53;;;23.65;44.38
21096;BME280;10706;49.036;12.112;2023-07-13T09:27:22;97804.72;;;23.65;46.42
21096;BME280;10706;49.036;12.112;2023-07-13T09:32:47;97815.50;;;22.82;48.61
21096;BME280;10706;49.036;12.112;2023-07-13T09:35:20;97803.84;;;22.90;47.52
21096;BME280;10706;49.036;12.112;2023-07-13T09:37:47;97802.84;;;22.86;46.95
21096;BME280;10706;49.036;12.112;2023-07-13T09:40:53;97803.13;;;22.76;45.06
21096;BME280;10706;49.036;12.112;2023-07-13T09:43:22;97796.78;;;22.89;44.64
21096;BME280;10706;49.036;12.112;2023-07-13T09:45:48;97802.72;;;22.91;42.30
21096;BME280;10706;49.036;12.112;2023-07-13T09:48:15;97802.84;;;23.17;43.03
21096;BME280;10706;49.036;12.112;2023-07-13T09:50:43;97802.09;;;23.03;42.49
21096;BME280;10706;49.036;12.112;2023-07-13T09:53:19;97806.38;;;23.26;42.80
21096;BME280;10706;49.036;12.112;2023-07-13T09:55:47;97804.16;;;23.28;41.33
21096;BME280;10706;49.036;12.112;2023-07-13T10:00:43;97816.59;;;23.12;41.17
21096;BME280;10706;49.036;12.112;2023-07-13T10:03:25;97813.47;;;23.27;41.27
21096;BME280;10706;49.036;12.112;2023-07-13T10:05:52;97811.25;;;23.64;38.97
21096;BME280;10706;49.036;12.112;2023-07-13T10:08:26;97812.25;;;23.77;39.83
21096;BME280;10706;49.036;12.112;2023-07-13T10:11:02;97810.50;;;24.08;43.93
21096;BME280;10706;49.036;12.112;2023-07-13T10:13:37;97819.94;;;23.75;40.71
21096;BME280;10706;49.036;12.112;2023-07-13T10:16:07;97820.28;;;23.91;40.45
21096;BME280;10706;49.036;12.112;2023-07-13T10:18:57;97813.56;;;24.15;40.08
21096;BME280;10706;49.036;12.112;2023-07-13T10:21:30;97815.78;;;24.39;39.71
21096;BME280;10706;49.036;12.112;2023-07-13T10:24:15;97795.22;;;24.41;38.10
21096;BME280;10706;49.036;12.112;2023-07-13T10:27:33;97801.16;;;24.61;37.08
21096;BME280;10706;49.036;12.112;2023-07-13T10:29:39;97801.38;;;25.24;38.73
21096;BME280;10706;49.036;12.112;2023-07-13T10:32:12;97810.44;;;25.07;36.67
21096;BME280;10706;49.036;12.112;2023-07-13T10:34:40;97809.22;;;25.34;36.47
21096;BME280;10706;49.036;12.112;2023-07-13T10:37:22;97803.72;;;24.57;36.15
21096;BME280;10706;49.036;12.112;2023-07-13T10:39:50;97796.81;;;24.60;37.41
21096;BME280;10706;49.036;12.112;2023-07-13T10:42:30;97788.31;;;24.35;37.82
21096;BME280;10706;49.036;12.112;2023-07-13T10:44:57;97801.72;;;24.75;37.71
21096;BME280;10706;49.036;12.112;2023-07-13T10:47:24;97809.97;;;24.49;38.25
21096;BME280;10706;49.036;12.112;2023-07-13T10:49:54;97813.97;;;24.60;37.33
21096;BME280;10706;49.036;12.112;2023-07-13T10:52:46;97809.72;;;24.07;39.11
21096;BME280;10706;49.036;12.112;2023-07-13T10:55:32;97812.56;;;24.28;38.10
21096;BME280;10706;49.036;12.112;2023-07-13T10:58:19;97815.31;;;24.28;39.41
21096;BME280;10706;49.036;12.112;2023-07-13T11:01:06;97814.78;;;24.43;39.05
21096;BME280;10706;49.036;12.112;2023-07-13T11:03:50;97804.72;;;24.18;38.93
21096;BME280;10706;49.036;12.112;2023-07-13T11:13:59;97796.56;;;23.83;37.62
21096;BME280;10706;49.036;12.112;2023-07-13T11:16:44;97811.31;;;23.99;37.21
21096;BME280;10706;49.036;12.112;2023-07-13T11:24:57;97796.03;;;23.55;36.57
21096;BME280;10706;49.036;12.112;2023-07-13T11:27:46;97807.97;;;23.94;35.83
21096;BME280;10706;49.036;12.112;2023-07-13T11:33:21;97793.78;;;24.44;35.64
21096;BME280;10706;49.036;12.112;2023-07-13T11:38:30;97801.47;;;24.59;35.29
21096;BME280;10706;49.036;12.112;2023-07-13T11:41:02;97797.56;;;24.78;35.03
21096;BME280;10706;49.036;12.112;2023-07-13T11:43:29;97785.34;;;24.75;33.17
21096;BME280;10706;49.036;12.112;2023-07-13T11:45:55;97789.38;;;24.69;34.78
21096;BME280;10706;49.036;12.112;2023-07-13T11:48:29;97792.72;;;24.83;34.82
21096;BME280;10706;49.036;12.112;2023-07-13T11:51:03;97784.47;;;24.92;34.59
21096;BME280;10706;49.036;12.112;2023-07-13T11:53:40;97782.91;;;24.82;34.24
21096;BME280;10706;49.036;12.112;2023-07-13T11:56:06;97774.66;;;25.30;33.18
21096;BME280;10706;49.036;12.112;2023-07-13T11:58:33;97790.94;;;25.98;31.15
21096;BME280;10706;49.036;12.112;2023-07-13T12:01:01;97788.34;;;26.14;30.45
21096;BME280;10706;49.036;12.112;2023-07-13T12:03:31;97795.84;;;26.05;30.17
21096;BME280;10706;49.036;12.112;2023-07-13T12:06:04;97797.41;;;26.27;30.09
21096;BME280;10706;49.036;12.112;2023-07-13T12:08:38;97788.25;;;27.26;29.37
21096;BME280;10706;49.036;12.112;2023-07-13T12:11:16;97779.44;;;27.45;28.16
21096;BME280;10706;49.036;12.112;2023-07-13T12:13:45;97786.22;;;27.76;28.54
21096;BME280;10706;49.036;12.112;2023-07-13T12:16:31;97782.50;;;28.85;27.68
21096;BME280;10706;49.036;12.112;2023-07-13T12:19:01;97777.38;;;28.23;27.43
21096;BME280;10706;49.036;12.112;2023-07-13T12:21:32;97771.53;;;27.97;27.52
21096;BME280;10706;49.036;12.112;2023-07-13T12:24:00;97776.56;;;28.67;27.54
21096;BME280;10706;49.036;12.112;2023-07-13T12:26:29;97781.72;;;29.00;26.84
21096;BME280;10706;49.036;12.112;2023-07-13T12:28:58;97770.38;;;30.31;24.92
21096;BME280;10706;49.036;12.112;2023-07-13T12:31:36;97770.81;;;31.49;23.37
21096;BME280;10706;49.036;12.112;2023-07-13T12:36:56;97765.22;;;29.87;23.96
21096;BME280;10706;49.036;12.112;2023-07-13T12:39:44;97765.84;;;28.94;25.26
21096;BME280;10706;49.036;12.112;2023-07-13T12:42:28;97762.56;;;29.55;25.22
21096;BME280;10706;49.036;12.112;2023-07-13T12:45:16;97771.88;;;30.06;24.95
21096;BME280;10706;49.036;12.112;2023-07-13T12:47:48;97762.25;;;29.76;24.96
21096;BME280;10706;49.036;12.112;2023-07-13T12:50:24;97761.38;;;29.92;25.93
21096;BME280;10706;49.036;12.112;2023-07-13T12:53:01;97763.13;;;31.65;22.24
21096;BME280;10706;49.036;12.112;2023-07-13T12:55:29;97761.22;;;31.43;22.54
21096;BME280;10706;49.036;12.112;2023-07-13T12:57:59;97748.72;;;31.49;22.19
21096;BME280;10706;49.036;12.112;2023-07-13T13:00:30;97737.50;;;31.38;23.25
21096;BME280;10706;49.036;12.112;2023-07-13T13:03:06;97733.34;;;30.29;23.12
21096;BME280;10706;49.036;12.112;2023-07-13T13:05:40;97736.19;;;29.54;24.55
21096;BME280;10706;49.036;12.112;2023-07-13T13:08:11;97735.94;;;29.08;24.92
21096;BME280;10706;49.036;12.112;2023-07-13T13:10:37;97738.53;;;29.01;24.80
21096;BME280;10706;49.036;12.112;2023-07-13T13:13:03;97733.97;;;29.08;25.08
21096;BME280;10706;49.036;12.112;2023-07-13T13:15:29;97729.38;;;29.29;25.14
21096;BME280;10706;49.036;12.112;2023-07-13T13:17:56;97730.75;;;29.38;25.18
21096;BME280;10706;49.036;12.112;2023-07-13T13:20:25;97730.44;;;29.24;25.09
21096;BME280;10706;49.036;12.112;2023-07-13T13:22:51;97733.59;;;28.59;25.13
21096;BME280;10706;49.036;12.112;2023-07-13T13:25:18;97740.69;;;28.16;25.39
21096;BME280;10706;49.036;12.112;2023-07-13T13:27:45;97734.16;;;27.92;25.84
21096;BME280;10706;49.036;12.112;2023-07-13T13:30:14;97724.97;;;28.60;24.41
21096;BME280;10706;49.036;12.112;2023-07-13T13:32:43;97716.19;;;29.02;24.00
21096;BME280;10706;49.036;12.112;2023-07-13T13:35:17;97711.59;;;28.75;25.74